createdAt,value
2018-05-09T00:00:00.406Z,9.40
2018-05-09T00:02:27.921Z,9.30
2018-05-09T00:04:56.152Z,9.30
2018-05-09T00:07:23.650Z,9.30
2018-05-09T00:09:51.884Z,9.20
2018-05-09T00:12:19.385Z,9.20
2018-05-09T00:14:47.611Z,9.10
2018-05-09T00:17:15.117Z,9.10
2018-05-09T00:19:42.599Z,9.00
2018-05-09T00:22:10.849Z,9.10
2018-05-09T00:24:38.326Z,9.00
2018-05-09T00:27:06.576Z,8.90
2018-05-09T00:29:34.062Z,8.90
2018-05-09T00:32:02.339Z,8.90
2018-05-09T00:34:30.568Z,8.90
2018-05-09T00:36:58.041Z,8.80
2018-05-09T00:39:25.551Z,8.90
2018-05-09T00:41:53.001Z,8.80
2018-05-09T00:44:20.493Z,8.80
2018-05-09T00:46:47.989Z,8.80
2018-05-09T00:49:16.263Z,8.80
2018-05-09T00:51:43.745Z,8.80
2018-05-09T00:54:24.069Z,8.70
2018-05-09T00:56:51.529Z,8.60
2018-05-09T00:59:19.012Z,8.60
2018-05-09T01:01:46.500Z,8.60
2018-05-09T01:04:14.000Z,8.60
2018-05-09T01:06:41.467Z,8.50
2018-05-09T01:09:08.928Z,8.50
2018-05-09T01:11:36.417Z,8.50
2018-05-09T01:14:03.888Z,8.40
2018-05-09T01:16:31.373Z,8.40
2018-05-09T01:18:58.832Z,8.30
2018-05-09T01:21:26.344Z,8.30
2018-05-09T01:23:54.561Z,8.30
2018-05-09T01:26:22.051Z,8.30
2018-05-09T01:28:49.536Z,8.30
2018-05-09T01:31:17.807Z,8.20
2018-05-09T01:33:46.051Z,8.10
2018-05-09T01:36:13.564Z,8.10
2018-05-09T01:38:41.049Z,8.10
2018-05-09T01:41:08.589Z,8.00
2018-05-09T01:43:36.045Z,8.10
2018-05-09T01:46:03.539Z,8.00
2018-05-09T01:48:31.019Z,8.00
2018-05-09T01:50:58.508Z,8.00
2018-05-09T01:53:26.017Z,8.10
2018-05-09T01:55:53.504Z,8.10
2018-05-09T01:58:20.997Z,8.10
2018-05-09T02:00:48.472Z,8.00
2018-05-09T02:03:15.988Z,8.00
2018-05-09T02:05:44.227Z,8.00
2018-05-09T02:08:11.721Z,8.00
2018-05-09T02:10:39.949Z,7.90
2018-05-09T02:13:08.165Z,7.90
2018-05-09T02:15:35.621Z,7.90
2018-05-09T02:18:03.081Z,7.80
2018-05-09T02:20:30.586Z,7.90
2018-05-09T02:22:58.081Z,7.80
2018-05-09T02:25:25.564Z,7.80
2018-05-09T02:27:53.788Z,7.70
2018-05-09T02:30:21.289Z,7.60
2018-05-09T02:32:50.266Z,7.50
2018-05-09T02:35:17.745Z,7.50
2018-05-09T02:37:45.209Z,7.50
2018-05-09T02:40:12.713Z,7.50
2018-05-09T02:42:40.190Z,7.50
2018-05-09T02:45:07.685Z,7.50
2018-05-09T02:47:35.917Z,7.40
2018-05-09T02:50:03.451Z,7.40
2018-05-09T02:52:30.872Z,7.50
2018-05-09T02:54:58.346Z,7.40
2018-05-09T02:57:26.616Z,7.40
2018-05-09T02:59:54.852Z,7.40
2018-05-09T03:02:22.348Z,7.30
2018-05-09T03:04:49.804Z,7.40
2018-05-09T03:07:17.322Z,7.30
2018-05-09T03:09:44.769Z,7.40
2018-05-09T03:12:12.265Z,7.30
2018-05-09T03:14:39.748Z,7.40
2018-05-09T03:17:08.013Z,7.30
2018-05-09T03:19:35.485Z,7.30
2018-05-09T03:22:03.737Z,7.20
2018-05-09T03:24:31.204Z,7.20
2018-05-09T03:26:58.697Z,7.30
2018-05-09T03:29:26.149Z,7.20
2018-05-09T03:31:53.608Z,7.10
2018-05-09T03:34:21.111Z,7.10
2018-05-09T03:36:48.572Z,7.10
2018-05-09T03:39:16.090Z,7.10
2018-05-09T03:41:43.570Z,7.00
2018-05-09T03:44:11.073Z,7.00
2018-05-09T03:46:38.537Z,6.90
2018-05-09T03:49:06.025Z,6.90
2018-05-09T03:51:33.484Z,6.90
2018-05-09T03:54:00.981Z,6.80
2018-05-09T03:56:28.444Z,6.80
2018-05-09T03:58:55.901Z,6.80
2018-05-09T04:01:23.383Z,6.80
2018-05-09T04:04:02.872Z,6.90
2018-05-09T04:06:42.328Z,6.90
2018-05-09T04:09:21.785Z,6.80
2018-05-09T04:11:49.257Z,6.80
2018-05-09T04:14:16.719Z,6.90
2018-05-09T04:16:44.990Z,6.80
2018-05-09T04:19:12.441Z,6.80
2018-05-09T04:21:39.945Z,6.80
2018-05-09T04:24:07.396Z,6.90
2018-05-09T04:26:34.907Z,6.90
2018-05-09T04:29:02.364Z,6.90
2018-05-09T04:31:30.412Z,6.90
2018-05-09T04:33:57.862Z,7.00
2018-05-09T04:36:25.363Z,7.00
2018-05-09T04:38:52.840Z,7.10
2018-05-09T04:41:21.097Z,7.10
2018-05-09T04:43:48.597Z,7.10
2018-05-09T04:46:16.860Z,7.20
2018-05-09T04:48:45.109Z,7.30
2018-05-09T04:51:12.573Z,7.30
2018-05-09T04:53:40.081Z,7.30
2018-05-09T04:56:07.548Z,7.40
2018-05-09T04:58:35.032Z,7.40
2018-05-09T05:01:02.509Z,7.50
2018-05-09T05:03:29.992Z,7.60
2018-05-09T05:05:57.475Z,7.80
2018-05-09T05:08:24.960Z,7.90
2018-05-09T05:10:52.430Z,7.90
2018-05-09T05:13:19.917Z,8.00
2018-05-09T05:15:48.246Z,8.20
2018-05-09T05:18:15.675Z,8.20
2018-05-09T05:20:43.161Z,8.30
2018-05-09T05:23:10.628Z,8.40
2018-05-09T05:25:38.129Z,8.50
2018-05-09T05:28:06.368Z,8.60
2018-05-09T05:30:33.896Z,8.60
2018-05-09T05:33:01.371Z,8.70
2018-05-09T05:35:28.876Z,8.80
2018-05-09T05:37:57.101Z,8.90
2018-05-09T05:40:24.613Z,8.90
2018-05-09T05:42:52.842Z,9.20
2018-05-09T05:45:20.424Z,9.20
2018-05-09T05:47:48.575Z,9.60
2018-05-09T05:50:16.084Z,9.60
2018-05-09T05:52:44.325Z,10.00
2018-05-09T05:55:11.834Z,9.90
2018-05-09T05:57:39.320Z,10.20
2018-05-09T06:00:06.836Z,10.40
2018-05-09T06:02:35.076Z,10.80
2018-05-09T06:05:02.580Z,10.80
2018-05-09T06:07:30.841Z,11.40
2018-05-09T06:09:59.120Z,11.80
2018-05-09T06:12:26.622Z,11.70
2018-05-09T06:14:54.872Z,12.10
2018-05-09T06:17:23.140Z,12.60
2018-05-09T06:19:51.376Z,12.90
2018-05-09T06:22:18.892Z,12.90
2018-05-09T06:24:47.132Z,13.40
2018-05-09T06:27:14.644Z,13.40
2018-05-09T06:29:42.110Z,13.80
2018-05-09T06:32:09.621Z,14.10
2018-05-09T06:34:37.085Z,14.50
2018-05-09T06:37:05.360Z,15.00
2018-05-09T06:39:33.637Z,15.30
2018-05-09T06:42:01.959Z,15.50
2018-05-09T06:44:29.491Z,15.50
2018-05-09T06:46:57.753Z,16.10
2018-05-09T06:49:26.063Z,16.50
2018-05-09T06:51:53.561Z,16.40
2018-05-09T06:54:21.021Z,16.60
2018-05-09T06:56:48.542Z,16.60
2018-05-09T06:59:16.010Z,16.80
2018-05-09T07:01:43.502Z,17.10
2018-05-09T07:04:11.026Z,17.20
2018-05-09T07:06:38.652Z,17.50
2018-05-09T07:09:06.038Z,17.50
2018-05-09T07:11:33.510Z,17.80
2018-05-09T07:14:00.989Z,17.90
2018-05-09T07:16:28.478Z,18.10
2018-05-09T07:18:56.733Z,18.40
2018-05-09T07:21:24.990Z,18.60
2018-05-09T07:23:52.476Z,18.60
2018-05-09T07:26:19.955Z,18.60
2018-05-09T07:28:48.197Z,18.80
2018-05-09T07:31:15.676Z,18.80
2018-05-09T07:33:43.929Z,19.30
2018-05-09T07:36:12.935Z,19.50
2018-05-09T07:38:40.452Z,19.50
2018-05-09T07:41:07.917Z,19.60
2018-05-09T07:43:35.468Z,19.50
2018-05-09T07:46:02.952Z,19.80
2018-05-09T07:48:30.442Z,19.90
2018-05-09T07:50:58.085Z,20.10
2018-05-09T07:53:25.579Z,20.20
2018-05-09T07:55:53.832Z,20.50
2018-05-09T07:58:21.300Z,20.50
2018-05-09T08:00:49.565Z,20.80
2018-05-09T08:03:17.031Z,20.80
2018-05-09T08:05:45.299Z,21.40
2018-05-09T08:08:12.760Z,21.30
2018-05-09T08:10:40.260Z,21.50
2018-05-09T08:13:07.736Z,21.50
2018-05-09T08:15:35.212Z,21.50
2018-05-09T08:18:02.748Z,21.50
2018-05-09T08:20:30.251Z,21.60
2018-05-09T08:22:57.757Z,21.40
2018-05-09T08:25:25.265Z,21.50
2018-05-09T08:27:52.837Z,21.80
2018-05-09T08:30:20.380Z,21.90
2018-05-09T08:32:47.883Z,22.20
2018-05-09T08:35:15.373Z,22.50
2018-05-09T08:37:42.907Z,22.60
2018-05-09T08:40:10.367Z,22.70
2018-05-09T08:42:37.901Z,22.80
2018-05-09T08:45:06.169Z,22.70
2018-05-09T08:47:33.694Z,22.60
2018-05-09T08:50:01.290Z,22.60
2018-05-09T08:52:28.777Z,22.60
2018-05-09T08:54:56.246Z,22.90
2018-05-09T08:57:23.745Z,23.00
2018-05-09T08:59:51.261Z,23.20
2018-05-09T09:02:18.765Z,23.40
2018-05-09T09:04:46.275Z,23.60
2018-05-09T09:07:13.742Z,24.10
2018-05-09T09:09:41.255Z,24.00
2018-05-09T09:12:08.736Z,23.20
2018-05-09T09:14:36.258Z,23.00
2018-05-09T09:17:05.274Z,23.40
2018-05-09T09:19:33.536Z,23.00
2018-05-09T09:22:01.020Z,23.00
2018-05-09T09:24:29.274Z,23.80
2018-05-09T09:26:56.732Z,23.80
2018-05-09T09:29:24.232Z,24.10
2018-05-09T09:31:51.720Z,24.10
2018-05-09T09:34:20.098Z,24.50
2018-05-09T09:36:47.608Z,24.70
2018-05-09T09:39:15.872Z,24.60
2018-05-09T09:41:44.155Z,24.70
2018-05-09T09:44:12.417Z,24.50
2018-05-09T09:46:40.676Z,23.90
2018-05-09T09:49:08.167Z,23.90
2018-05-09T09:51:36.424Z,24.20
2018-05-09T09:54:03.940Z,24.10
2018-05-09T09:56:31.499Z,25.00
2018-05-09T09:58:58.982Z,25.20
2018-05-09T10:01:26.491Z,25.60
2018-05-09T10:03:55.461Z,25.90
2018-05-09T10:06:22.957Z,25.90
2018-05-09T10:08:50.478Z,25.20
2018-05-09T10:11:17.942Z,24.10
2018-05-09T10:13:46.237Z,23.90
2018-05-09T10:16:14.527Z,24.80
2018-05-09T10:18:42.011Z,24.80
2018-05-09T10:21:09.576Z,24.40
2018-05-09T10:23:37.110Z,24.90
2018-05-09T10:26:04.582Z,25.10
2018-05-09T10:28:32.092Z,24.40
2018-05-09T10:30:59.562Z,24.10
2018-05-09T10:33:27.845Z,24.90
2018-05-09T10:35:56.077Z,24.60
2018-05-09T10:38:23.584Z,24.60
2018-05-09T10:40:51.833Z,25.20
2018-05-09T10:43:19.350Z,25.10
2018-05-09T10:45:46.828Z,24.60
2018-05-09T10:48:14.333Z,24.70
2018-05-09T10:50:42.661Z,25.30
2018-05-09T10:53:10.889Z,25.30
2018-05-09T10:55:39.154Z,25.10
2018-05-09T10:58:07.431Z,24.90
2018-05-09T11:00:34.933Z,24.90
2018-05-09T11:03:02.447Z,24.30
2018-05-09T11:05:30.728Z,24.10
2018-05-09T11:07:59.010Z,23.80
2018-05-09T11:10:26.614Z,23.80
2018-05-09T11:12:54.027Z,23.70
2018-05-09T11:15:22.287Z,23.80
2018-05-09T11:17:49.813Z,23.80
2018-05-09T11:20:17.324Z,24.10
2018-05-09T11:22:45.630Z,23.20
2018-05-09T11:25:13.138Z,23.20
2018-05-09T11:27:42.150Z,24.80
2018-05-09T11:30:10.415Z,25.20
2018-05-09T11:32:37.909Z,25.20
2018-05-09T11:35:05.401Z,25.50
2018-05-09T11:37:32.909Z,25.80
2018-05-09T11:40:01.168Z,25.50
2018-05-09T11:42:28.659Z,25.40
2018-05-09T11:44:56.184Z,25.60
2018-05-09T11:47:23.660Z,25.70
2018-05-09T11:49:51.921Z,26.60
2018-05-09T11:52:19.438Z,26.60
2018-05-09T11:54:46.959Z,26.70
2018-05-09T11:57:15.059Z,26.70
2018-05-09T11:59:42.569Z,26.40
2018-05-09T12:02:11.644Z,25.60
2018-05-09T12:04:40.584Z,24.80
2018-05-09T12:07:08.089Z,24.80
2018-05-09T12:09:35.589Z,24.40
2018-05-09T12:12:03.842Z,23.40
2018-05-09T12:14:31.339Z,23.40
2018-05-09T12:16:59.600Z,23.10
2018-05-09T12:19:27.862Z,22.60
2018-05-09T12:21:55.385Z,22.60
2018-05-09T12:24:22.886Z,22.70
2018-05-09T12:26:50.357Z,22.60
2018-05-09T12:29:18.590Z,23.80
2018-05-09T12:31:46.116Z,23.80
2018-05-09T12:34:13.592Z,24.70
2018-05-09T12:36:41.101Z,24.90
2018-05-09T12:39:09.341Z,25.80
2018-05-09T12:41:36.823Z,25.80
2018-05-09T12:44:04.398Z,26.20
2018-05-09T12:46:32.678Z,26.50
2018-05-09T12:49:00.916Z,26.60
2018-05-09T12:51:28.420Z,26.50
2018-05-09T12:53:56.652Z,26.30
2018-05-09T12:56:24.134Z,26.30
2018-05-09T12:58:51.657Z,26.20
2018-05-09T13:01:19.105Z,26.00
2018-05-09T13:03:46.602Z,26.60
2018-05-09T13:06:14.861Z,26.70
2018-05-09T13:08:42.337Z,26.80
2018-05-09T13:11:09.878Z,26.60
2018-05-09T13:13:37.379Z,26.30
2018-05-09T13:16:05.610Z,26.90
2018-05-09T13:18:33.113Z,26.90
2018-05-09T13:21:01.389Z,27.50
2018-05-09T13:23:29.677Z,27.20
2018-05-09T13:25:57.995Z,27.10
2018-05-09T13:28:25.484Z,27.00
2018-05-09T13:30:52.990Z,26.10
2018-05-09T13:33:20.484Z,25.10
2018-05-09T13:35:48.003Z,24.30
2018-05-09T13:38:15.502Z,24.30
2018-05-09T13:40:43.054Z,24.00
2018-05-09T13:43:10.578Z,24.10
2018-05-09T13:45:38.085Z,23.90
2018-05-09T13:48:05.542Z,23.60
2018-05-09T13:50:33.054Z,23.20
2018-05-09T13:53:00.549Z,23.10
2018-05-09T13:55:28.037Z,23.00
2018-05-09T13:57:55.539Z,22.70
2018-05-09T14:00:23.051Z,23.30
2018-05-09T14:02:50.551Z,24.10
2018-05-09T14:05:18.034Z,24.80
2018-05-09T14:07:45.524Z,25.00
2018-05-09T14:10:13.001Z,25.10
2018-05-09T14:12:40.500Z,25.30
2018-05-09T14:15:08.224Z,25.30
2018-05-09T14:17:35.716Z,25.20
2018-05-09T14:20:03.231Z,25.20
2018-05-09T14:22:31.566Z,25.10
2018-05-09T14:24:59.062Z,25.10
2018-05-09T14:27:26.547Z,25.30
2018-05-09T14:29:54.903Z,25.20
2018-05-09T14:32:22.391Z,25.20
2018-05-09T14:34:49.818Z,25.40
2018-05-09T14:37:17.302Z,25.30
2018-05-09T14:39:45.563Z,25.30
2018-05-09T14:42:13.068Z,25.30
2018-05-09T14:44:40.555Z,25.00
2018-05-09T14:47:08.037Z,24.90
2018-05-09T14:49:35.516Z,24.70
2018-05-09T14:52:03.789Z,24.80
2018-05-09T14:54:32.057Z,24.60
2018-05-09T14:56:59.501Z,24.60
2018-05-09T14:59:27.049Z,24.60
2018-05-09T15:01:54.589Z,24.70
2018-05-09T15:04:22.177Z,24.70
2018-05-09T15:06:50.370Z,24.60
2018-05-09T15:09:17.872Z,24.60
2018-05-09T15:11:45.338Z,24.60
2018-05-09T15:14:12.829Z,24.80
2018-05-09T15:16:40.342Z,24.40
2018-05-09T15:19:07.837Z,24.20
2018-05-09T15:21:35.360Z,24.10
2018-05-09T15:24:02.845Z,24.10
2018-05-09T15:26:30.328Z,23.60
2018-05-09T15:28:57.856Z,23.60
2018-05-09T15:31:26.973Z,23.30
2018-05-09T15:33:54.489Z,23.30
2018-05-09T15:36:21.980Z,23.20
2018-05-09T15:38:49.488Z,23.20
2018-05-09T15:41:17.725Z,23.20
2018-05-09T15:43:45.208Z,23.20
2018-05-09T15:46:13.537Z,23.30
2018-05-09T15:48:41.040Z,23.20
2018-05-09T15:51:10.030Z,22.90
2018-05-09T15:53:37.509Z,22.80
2018-05-09T15:56:05.785Z,22.60
2018-05-09T15:58:34.038Z,22.40
2018-05-09T16:01:01.526Z,22.40
2018-05-09T16:03:29.779Z,22.30
2018-05-09T16:05:57.298Z,22.30
2018-05-09T16:08:24.791Z,22.30
2018-05-09T16:10:52.276Z,22.30
2018-05-09T16:13:19.793Z,22.10
2018-05-09T16:15:47.280Z,22.10
2018-05-09T16:18:15.545Z,21.80
2018-05-09T16:20:43.010Z,21.70
2018-05-09T16:23:11.278Z,21.60
2018-05-09T16:25:38.760Z,21.60
2018-05-09T16:28:06.298Z,21.60
2018-05-09T16:30:33.761Z,21.60
2018-05-09T16:33:01.247Z,21.70
2018-05-09T16:35:28.770Z,21.70
2018-05-09T16:37:56.227Z,21.90
2018-05-09T16:40:23.733Z,21.80
2018-05-09T16:42:51.218Z,21.80
2018-05-09T16:45:18.721Z,21.80
2018-05-09T16:47:46.979Z,21.50
2018-05-09T16:50:14.486Z,21.50
2018-05-09T16:52:42.058Z,21.60
2018-05-09T16:55:09.555Z,21.60
2018-05-09T16:57:37.036Z,21.60
2018-05-09T17:00:05.285Z,21.30
2018-05-09T17:02:32.799Z,21.30
2018-05-09T17:05:01.070Z,21.20
2018-05-09T17:07:28.541Z,21.20
2018-05-09T17:09:56.033Z,21.20
2018-05-09T17:12:23.565Z,21.10
2018-05-09T17:14:51.086Z,21.10
2018-05-09T17:17:19.371Z,21.10
2018-05-09T17:19:47.588Z,21.10
2018-05-09T17:22:28.004Z,21.10
2018-05-09T17:24:56.238Z,21.10
2018-05-09T17:27:23.750Z,21.10
2018-05-09T17:29:51.229Z,21.10
2018-05-09T17:32:18.757Z,21.00
2018-05-09T17:34:46.986Z,20.90
2018-05-09T17:37:14.460Z,20.90
2018-05-09T17:39:41.960Z,20.90
2018-05-09T17:42:09.450Z,20.80
2018-05-09T17:44:36.937Z,20.80
2018-05-09T17:47:04.420Z,20.70
2018-05-09T17:49:32.704Z,20.60
2018-05-09T17:52:00.938Z,20.50
2018-05-09T17:54:28.444Z,20.50
2018-05-09T17:56:56.676Z,20.40
2018-05-09T17:59:24.170Z,20.40
2018-05-09T18:01:52.409Z,20.20
2018-05-09T18:04:19.908Z,20.10
2018-05-09T18:06:48.164Z,19.90
2018-05-09T18:09:15.680Z,19.80
2018-05-09T18:11:43.181Z,19.80
2018-05-09T18:14:10.653Z,19.50
2018-05-09T18:16:38.911Z,19.30
2018-05-09T18:19:06.441Z,19.30
2018-05-09T18:21:33.913Z,19.20
2018-05-09T18:24:01.424Z,19.10
2018-05-09T18:26:29.672Z,19.20
2018-05-09T18:28:57.170Z,19.10
2018-05-09T18:31:24.689Z,19.10
2018-05-09T18:33:52.204Z,19.00
2018-05-09T18:36:19.681Z,18.90
2018-05-09T18:38:47.209Z,18.80
2018-05-09T18:41:14.668Z,18.80
2018-05-09T18:43:42.182Z,18.70
2018-05-09T18:46:09.652Z,18.50
2018-05-09T18:48:37.125Z,18.30
2018-05-09T18:51:05.393Z,18.00
2018-05-09T18:53:33.665Z,17.90
2018-05-09T18:56:01.911Z,17.90
2018-05-09T18:58:29.396Z,17.90
2018-05-09T19:00:57.650Z,17.60
2018-05-09T19:03:25.162Z,17.50
2018-05-09T19:05:52.659Z,17.40
2018-05-09T19:08:20.125Z,17.30
2018-05-09T19:10:47.621Z,17.20
2018-05-09T19:13:15.890Z,16.90
2018-05-09T19:15:44.178Z,16.70
2018-05-09T19:18:12.465Z,16.50
2018-05-09T19:20:39.977Z,16.50
2018-05-09T19:23:07.519Z,16.30
2018-05-09T19:25:35.046Z,16.10
2018-05-09T19:28:02.514Z,16.10
2018-05-09T19:30:30.027Z,16.10
2018-05-09T19:32:57.505Z,16.20
2018-05-09T19:35:25.764Z,15.80
2018-05-09T19:37:53.246Z,15.80
2018-05-09T19:40:21.573Z,15.40
2018-05-09T19:42:49.036Z,15.40
2018-05-09T19:45:16.524Z,15.30
2018-05-09T19:47:44.818Z,15.20
2018-05-09T19:50:12.272Z,15.20
2018-05-09T19:52:40.525Z,15.00
2018-05-09T19:55:08.138Z,15.00
2018-05-09T19:57:35.559Z,15.00
2018-05-09T20:00:03.867Z,14.90
2018-05-09T20:02:31.342Z,14.90
2018-05-09T20:04:58.807Z,14.80
2018-05-09T20:07:26.536Z,14.70
2018-05-09T20:09:54.029Z,14.80
2018-05-09T20:12:21.535Z,14.60
2018-05-09T20:14:49.791Z,14.40
2018-05-09T20:17:17.280Z,14.40
2018-05-09T20:19:45.561Z,14.10
2018-05-09T20:22:13.812Z,14.00
2018-05-09T20:24:42.055Z,13.80
2018-05-09T20:27:09.546Z,13.80
2018-05-09T20:29:37.008Z,13.70
2018-05-09T20:32:16.521Z,13.70
2018-05-09T20:34:44.001Z,13.70
2018-05-09T20:37:12.277Z,13.70
2018-05-09T20:39:41.267Z,13.60
2018-05-09T20:42:09.523Z,13.50
2018-05-09T20:44:37.013Z,13.50
2018-05-09T20:47:04.521Z,13.40
2018-05-09T20:49:32.037Z,13.40
2018-05-09T20:51:59.543Z,13.50
2018-05-09T20:54:27.461Z,13.30
2018-05-09T20:56:55.746Z,13.30
2018-05-09T20:59:24.000Z,13.20
2018-05-09T21:01:51.460Z,13.20
2018-05-09T21:04:18.969Z,13.20
2018-05-09T21:06:46.445Z,13.20
2018-05-09T21:09:14.047Z,13.20
2018-05-09T21:14:46.749Z,13.00
2018-05-09T21:17:14.989Z,12.80
2018-05-09T21:19:42.534Z,12.80
2018-05-09T21:22:09.999Z,12.80
2018-05-09T21:24:37.492Z,12.60
2018-05-09T21:27:05.040Z,12.60
2018-05-09T21:29:32.533Z,12.60
2018-05-09T21:32:00.752Z,12.50
2018-05-09T21:34:28.265Z,12.50
2018-05-09T21:36:56.490Z,12.20
2018-05-09T21:39:23.992Z,12.10
2018-05-09T21:41:52.228Z,12.00
2018-05-09T21:44:19.735Z,12.00
2018-05-09T21:46:48.017Z,12.00
2018-05-09T21:49:16.270Z,12.00
2018-05-09T21:51:43.780Z,12.00
2018-05-09T21:54:11.265Z,11.90
2018-05-09T21:56:38.757Z,11.90
2018-05-09T21:59:06.227Z,12.00
2018-05-09T22:01:34.472Z,11.90
2018-05-09T22:04:01.956Z,11.80
2018-05-09T22:06:30.220Z,11.70
2018-05-09T22:08:57.680Z,11.70
2018-05-09T22:11:25.949Z,11.60
2018-05-09T22:13:53.408Z,11.60
2018-05-09T22:16:20.957Z,11.60
2018-05-09T22:18:48.424Z,11.70
2018-05-09T22:21:15.921Z,11.60
2018-05-09T22:23:44.165Z,11.60
2018-05-09T22:26:11.693Z,11.50
2018-05-09T22:28:39.177Z,11.50
2018-05-09T22:31:06.654Z,11.50
2018-05-09T22:33:34.900Z,11.50
2018-05-09T22:36:02.377Z,11.50
2018-05-09T22:38:29.885Z,11.50
2018-05-09T22:40:57.355Z,11.50
2018-05-09T22:43:24.856Z,11.50
2018-05-09T22:45:52.345Z,11.50
2018-05-09T22:48:19.837Z,11.50
2018-05-09T22:50:47.321Z,11.50
2018-05-09T22:53:14.830Z,11.40
2018-05-09T22:55:42.285Z,11.40
2018-05-09T22:58:09.753Z,11.40
2018-05-09T23:00:37.263Z,11.40
2018-05-09T23:03:04.730Z,11.40
2018-05-09T23:05:33.004Z,11.30
2018-05-09T23:08:01.245Z,11.30
2018-05-09T23:10:28.744Z,11.30
2018-05-09T23:12:56.969Z,11.30
2018-05-09T23:15:24.464Z,11.30
2018-05-09T23:17:51.935Z,11.50
2018-05-09T23:20:20.185Z,11.50
2018-05-09T23:22:47.669Z,11.50
2018-05-09T23:25:15.157Z,11.40
2018-05-09T23:27:42.661Z,11.40
2018-05-09T23:30:10.113Z,11.30
2018-05-09T23:32:37.593Z,11.30
2018-05-09T23:35:05.112Z,11.20
2018-05-09T23:37:32.599Z,11.20
2018-05-09T23:40:00.076Z,11.20
2018-05-09T23:42:28.336Z,11.10
2018-05-09T23:44:55.825Z,11.10
2018-05-09T23:47:24.077Z,10.90
2018-05-09T23:49:51.590Z,11.00
2018-05-09T23:52:19.112Z,11.00
2018-05-09T23:54:46.571Z,10.90
2018-05-09T23:57:14.821Z,10.80
2018-05-09T23:59:42.350Z,10.80
